Time;durP1;ratioP1;P1;durP2;ratioP2;P2;SDS_P1;SDS_P2;PMS_P1;PMS_P2;Temp;Humidity;BMP_temperature;BMP_pressure;BME280_temperature;BME280_humidity;BME280_pressure;Samples;Min_cycle;Max_cycle;Signal;HPM_P1;HPM_P2
2024/01/24 00:04:14;;;;;;;10.88;3.22;;;11.70;99.90;;;;;;10370874;28;20263;-62
2024/01/24 00:09:18;;;;;;;13.70;3.63;;;11.80;99.90;;;;;;10370664;28;20181;-62
2024/01/24 00:14:22;;;;;;;12.68;3.50;;;11.80;99.90;;;;;;10369808;28;20691;-62
2024/01/24 00:19:26;;;;;;;9.63;3.70;;;11.90;99.90;;;;;;10370125;28;20201;-60
2024/01/24 00:24:30;;;;;;;6.82;3.17;;;12.00;99.90;;;;;;10369402;28;20213;-62
2024/01/24 00:29:34;;;;;;;14.63;4.00;;;12.00;99.90;;;;;;10369603;28;20185;-62
2024/01/24 00:34:39;;;;;;;6.68;3.10;;;12.00;99.90;;;;;;10369411;28;20221;-61
2024/01/24 00:39:45;;;;;;;8.57;3.60;;;12.10;99.90;;;;;;10369722;28;20258;-60
2024/01/24 00:44:51;;;;;;;10.73;3.22;;;12.10;99.90;;;;;;10369164;28;20271;-62
2024/01/24 00:49:55;;;;;;;6.43;3.13;;;12.20;99.90;;;;;;10369156;28;20232;-63
2024/01/24 00:55:00;;;;;;;7.88;2.97;;;12.20;99.90;;;;;;10367761;28;20236;-62
2024/01/24 01:00:06;;;;;;;7.13;2.72;;;12.30;99.90;;;;;;10368326;28;20201;-64
2024/01/24 01:05:11;;;;;;;6.97;3.35;;;12.40;99.90;;;;;;10368086;28;20217;-62
2024/01/24 01:10:15;;;;;;;5.05;2.45;;;12.40;99.90;;;;;;10379906;28;20287;-61
2024/01/24 01:15:18;;;;;;;9.45;3.05;;;12.50;99.90;;;;;;10367616;28;20229;-61
2024/01/24 01:20:23;;;;;;;6.18;2.97;;;12.50;99.90;;;;;;10387986;28;20204;-61
2024/01/24 01:25:27;;;;;;;6.97;2.58;;;12.60;99.90;;;;;;10407915;28;20221;-62
2024/01/24 01:30:31;;;;;;;5.00;2.38;;;12.60;99.90;;;;;;10408338;28;20204;-62
2024/01/24 01:35:36;;;;;;;4.80;2.33;;;12.70;99.90;;;;;;10369478;28;20221;-63
2024/01/24 01:40:40;;;;;;;9.68;2.45;;;12.80;99.90;;;;;;10366935;28;20257;-62
2024/01/24 01:45:44;;;;;;;4.35;1.90;;;12.80;99.90;;;;;;10367042;28;20209;-62
2024/01/24 01:50:49;;;;;;;5.05;1.80;;;12.90;99.90;;;;;;10366756;28;20263;-62
2024/01/24 01:55:56;;;;;;;3.88;2.00;;;12.90;99.90;;;;;;10367782;28;20209;-63
2024/01/24 02:01:00;;;;;;;3.13;1.67;;;13.00;99.90;;;;;;10394059;28;20197;-62
2024/01/24 02:06:07;;;;;;;5.10;2.30;;;13.00;99.90;;;;;;10406804;28;20216;-61
2024/01/24 02:11:11;;;;;;;5.00;1.80;;;13.00;99.90;;;;;;10407251;28;20200;-63
2024/01/24 02:16:14;;;;;;;5.50;1.90;;;13.00;99.90;;;;;;10396360;28;20225;-62
2024/01/24 02:21:24;;;;;;;4.28;1.90;;;13.00;99.90;;;;;;10366249;28;20219;-62
2024/01/24 02:26:30;;;;;;;3.63;1.60;;;13.00;99.90;;;;;;10366127;28;20213;-61
2024/01/24 02:31:34;;;;;;;2.88;1.40;;;13.00;99.90;;;;;;10366100;28;20205;-61
2024/01/24 02:36:37;;;;;;;3.40;1.30;;;13.00;99.90;;;;;;10365696;28;20279;-61
2024/01/24 02:41:42;;;;;;;2.75;1.30;;;13.10;99.90;;;;;;10365580;28;20200;-62
2024/01/24 02:46:46;;;;;;;2.40;1.52;;;13.10;99.90;;;;;;10365861;28;20197;-62
2024/01/24 02:51:50;;;;;;;1.15;1.02;;;13.20;99.90;;;;;;10365685;28;20587;-62
2024/01/24 02:56:55;;;;;;;2.92;0.90;;;13.20;99.90;;;;;;10365473;28;20279;-61
2024/01/24 03:01:58;;;;;;;1.15;0.80;;;13.30;99.90;;;;;;10365224;28;20286;-60
2024/01/24 03:07:02;;;;;;;1.58;1.00;;;13.30;99.90;;;;;;10365182;28;20199;-61
2024/01/24 03:12:08;;;;;;;1.80;0.90;;;13.40;99.90;;;;;;10364833;28;20252;-61
2024/01/24 03:17:11;;;;;;;1.58;0.77;;;13.50;99.90;;;;;;10369014;28;20267;-61
2024/01/24 03:22:15;;;;;;;1.42;1.00;;;13.50;99.90;;;;;;10371912;28;20229;-62
2024/01/24 03:27:20;;;;;;;1.20;0.63;;;13.60;99.90;;;;;;10382357;28;20196;-63
2024/01/24 03:32:23;;;;;;;3.33;0.95;;;13.60;99.90;;;;;;10412574;28;20247;-62
2024/01/24 03:37:27;;;;;;;1.98;0.90;;;13.60;99.90;;;;;;10412274;28;20212;-63
2024/01/24 03:42:32;;;;;;;1.65;0.80;;;13.60;99.90;;;;;;10390552;28;20573;-61
2024/01/24 03:47:36;;;;;;;1.35;0.80;;;13.60;99.90;;;;;;10371563;28;20205;-60
2024/01/24 03:52:40;;;;;;;1.63;0.95;;;13.50;99.90;;;;;;10370454;28;20217;-61
2024/01/24 03:57:45;;;;;;;1.67;1.00;;;13.50;99.90;;;;;;10370516;28;20616;-60
2024/01/24 04:02:48;;;;;;;1.30;1.20;;;13.60;99.90;;;;;;10370191;28;20224;-60
2024/01/24 04:07:52;;;;;;;1.95;1.30;;;13.70;99.90;;;;;;10370261;28;20197;-60
2024/01/24 04:12:57;;;;;;;2.05;1.63;;;13.60;99.90;;;;;;10369897;28;20225;-59
2024/01/24 04:18:01;;;;;;;0.95;0.88;;;13.50;99.90;;;;;;10369525;28;20213;-59
2024/01/24 04:23:05;;;;;;;0.80;0.80;;;13.40;99.90;;;;;;10369306;28;20229;-58
2024/01/24 04:28:10;;;;;;;0.65;0.60;;;13.40;99.90;;;;;;10368434;28;20248;-60
2024/01/24 04:33:14;;;;;;;1.23;0.60;;;13.30;99.90;;;;;;10368783;28;20294;-60
2024/01/24 04:38:18;;;;;;;0.93;0.40;;;13.30;99.90;;;;;;10370140;28;20205;-60
2024/01/24 04:43:26;;;;;;;0.82;0.40;;;13.20;99.90;;;;;;10368730;28;20263;-60
2024/01/24 04:48:35;;;;;;;2.28;0.60;;;13.20;99.90;;;;;;10368773;28;20205;-60
2024/01/24 04:53:40;;;;;;;0.50;0.30;;;13.20;99.90;;;;;;10368238;28;20225;-60
2024/01/24 04:58:46;;;;;;;2.15;0.50;;;13.20;99.90;;;;;;10368332;28;20619;-59
2024/01/24 05:03:54;;;;;;;0.70;0.50;;;13.20;99.90;;;;;;10367630;28;20267;-61
2024/01/24 05:08:58;;;;;;;2.65;0.60;;;13.20;99.90;;;;;;10367927;28;20260;-60
2024/01/24 05:14:03;;;;;;;1.20;0.57;;;13.20;99.90;;;;;;10367306;28;20220;-61
2024/01/24 05:19:11;;;;;;;4.07;0.88;;;13.20;99.90;;;;;;10367184;28;20266;-62
2024/01/24 05:24:19;;;;;;;2.70;0.70;;;13.20;99.90;;;;;;10366781;28;20283;-62
2024/01/24 05:29:24;;;;;;;2.63;0.93;;;13.20;99.90;;;;;;10367144;28;20248;-61
2024/01/24 05:34:32;;;;;;;7.47;0.80;;;13.20;99.90;;;;;;10367105;28;20287;-61
2024/01/24 05:39:36;;;;;;;5.72;1.45;;;13.20;99.90;;;;;;10366593;28;20234;-60
2024/01/24 05:44:45;;;;;;;5.70;1.50;;;13.20;99.90;;;;;;10373370;28;20224;-62
2024/01/24 05:49:49;;;;;;;10.90;1.88;;;13.10;99.90;;;;;;10366849;28;20259;-61
2024/01/24 05:54:54;;;;;;;7.15;1.75;;;13.10;99.90;;;;;;10383012;28;20220;-61
2024/01/24 06:00:02;;;;;;;11.68;2.80;;;13.10;99.30;;;;;;10407881;28;20219;-62
2024/01/24 06:05:09;;;;;;;8.77;2.30;;;13.10;98.20;;;;;;10407063;28;20220;-61
2024/01/24 06:10:18;;;;;;;12.15;2.25;;;13.10;98.20;;;;;;10406922;28;20234;-60
2024/01/24 06:15:23;;;;;;;10.95;3.22;;;13.10;98.90;;;;;;10406045;28;20252;-61
2024/01/24 06:20:27;;;;;;;11.88;2.78;;;13.00;97.20;;;;;;10366303;28;20228;-62
2024/01/24 06:25:32;;;;;;;13.02;2.85;;;13.00;98.40;;;;;;10388379;28;20246;-63
2024/01/24 06:30:41;;;;;;;11.00;2.58;;;13.00;97.70;;;;;;10405658;28;20739;-61
2024/01/24 06:35:45;;;;;;;14.52;3.17;;;12.90;98.60;;;;;;10405782;28;20293;-62
2024/01/24 06:40:55;;;;;;;13.15;3.00;;;12.80;98.30;;;;;;10405421;28;20722;-63
2024/01/24 06:46:02;;;;;;;14.82;3.15;;;12.80;98.10;;;;;;10405854;28;20224;-61
2024/01/24 06:51:07;;;;;;;13.07;3.78;;;12.80;96.50;;;;;;10374274;28;20200;-63
2024/01/24 06:56:11;;;;;;;15.13;2.95;;;12.80;96.30;;;;;;10371779;28;20356;-63
2024/01/24 07:01:16;;;;;;;16.60;4.03;;;12.80;95.30;;;;;;10372018;28;20247;-61
2024/01/24 07:06:28;;;;;;;16.55;4.05;;;12.80;95.50;;;;;;10371148;28;20714;-62
2024/01/24 07:11:38;;;;;;;16.73;4.68;;;12.80;95.00;;;;;;10410340;23;20459;-65
2024/01/24 07:16:46;;;;;;;15.65;4.00;;;12.90;95.00;;;;;;10452308;28;20751;-64
2024/01/24 07:21:58;;;;;;;15.80;3.80;;;12.90;95.00;;;;;;10454926;28;20238;-64
2024/01/24 07:27:06;;;;;;;19.80;3.70;;;12.90;94.50;;;;;;10447238;28;20199;-63
2024/01/24 07:32:11;;;;;;;19.83;5.28;;;12.90;94.40;;;;;;10449975;28;20444;-68
2024/01/24 07:37:15;;;;;;;17.38;4.63;;;13.00;95.10;;;;;;10451812;28;20243;-67
2024/01/24 07:42:19;;;;;;;16.77;4.15;;;12.90;94.20;;;;;;10452858;28;20219;-68
2024/01/24 07:47:25;;;;;;;21.85;4.35;;;12.80;92.80;;;;;;10453596;28;20196;-67
2024/01/24 07:52:29;;;;;;;20.73;4.80;;;12.80;94.30;;;;;;10454340;28;20224;-68
2024/01/24 07:57:43;;;;;;;20.08;4.80;;;12.70;92.90;;;;;;10453673;28;20215;-67
2024/01/24 08:02:49;;;;;;;24.75;5.05;;;12.60;91.10;;;;;;10453189;28;20224;-68
2024/01/24 08:07:54;;;;;;;19.08;4.50;;;12.60;90.10;;;;;;10458701;28;20563;-67
2024/01/24 08:12:58;;;;;;;22.55;5.45;;;12.60;90.90;;;;;;10452296;28;20226;-70
2024/01/24 08:18:04;;;;;;;18.90;4.45;;;12.50;89.50;;;;;;10453791;28;20219;-66
2024/01/24 08:23:08;;;;;;;22.40;5.30;;;12.50;90.10;;;;;;10452202;28;20221;-66
2024/01/24 08:28:12;;;;;;;20.17;4.88;;;12.40;89.40;;;;;;10453000;28;20203;-65
2024/01/24 08:33:17;;;;;;;21.15;5.07;;;12.40;90.00;;;;;;10452077;28;20241;-65
2024/01/24 08:38:23;;;;;;;21.67;4.80;;;12.40;88.00;;;;;;10450389;28;20224;-67
2024/01/24 08:43:27;;;;;;;24.10;5.32;;;12.40;87.00;;;;;;10448883;28;20706;-67
2024/01/24 08:48:32;;;;;;;22.08;5.28;;;12.40;87.20;;;;;;10452338;28;20246;-66
2024/01/24 08:53:38;;;;;;;29.80;5.63;;;12.40;86.90;;;;;;10451205;28;20215;-66
2024/01/24 08:58:42;;;;;;;25.95;4.90;;;12.40;87.60;;;;;;10451349;28;20246;-66
2024/01/24 09:03:49;;;;;;;23.08;5.40;;;12.40;87.00;;;;;;10450756;28;20244;-67
2024/01/24 09:08:53;;;;;;;20.90;5.10;;;12.40;86.70;;;;;;10450087;28;20196;-67
2024/01/24 09:14:00;;;;;;;23.48;5.20;;;12.40;86.30;;;;;;10446130;28;20249;-67
2024/01/24 09:19:05;;;;;;;19.77;5.13;;;12.40;85.60;;;;;;10453039;28;20227;-67
2024/01/24 09:24:09;;;;;;;25.27;5.07;;;12.40;85.20;;;;;;10450874;28;20226;-66
2024/01/24 09:29:15;;;;;;;21.52;5.47;;;12.40;83.30;;;;;;10453641;28;20207;-66
2024/01/24 09:34:26;;;;;;;24.38;5.82;;;12.40;84.60;;;;;;10451893;28;20219;-65
2024/01/24 09:39:30;;;;;;;21.30;5.10;;;12.40;84.00;;;;;;10453868;28;20219;-65
2024/01/24 09:44:36;;;;;;;21.48;5.18;;;12.30;83.80;;;;;;10452771;28;20203;-65
2024/01/24 09:49:44;;;;;;;27.67;4.68;;;12.40;83.40;;;;;;10456914;28;20952;-64
2024/01/24 09:54:54;;;;;;;29.20;5.95;;;12.40;83.00;;;;;;10451415;28;20670;-65
2024/01/24 09:59:58;;;;;;;26.67;5.97;;;12.40;83.80;;;;;;10451870;28;20267;-65
2024/01/24 10:05:05;;;;;;;20.48;5.05;;;12.40;83.20;;;;;;10451291;28;20208;-65
2024/01/24 10:10:12;;;;;;;23.42;5.85;;;12.40;83.10;;;;;;10451846;28;20747;-66
2024/01/24 10:15:16;;;;;;;25.23;5.40;;;12.30;83.40;;;;;;10452526;28;20212;-68
2024/01/24 10:20:21;;;;;;;28.40;5.30;;;12.30;83.10;;;;;;10454376;28;20224;-66
2024/01/24 10:25:25;;;;;;;22.90;5.95;;;12.30;83.40;;;;;;10453254;28;20666;-66
2024/01/24 10:30:29;;;;;;;19.65;5.07;;;12.30;83.40;;;;;;10459857;28;20215;-65
2024/01/24 10:35:35;;;;;;;22.58;5.68;;;12.30;83.00;;;;;;10458170;28;20249;-66
2024/01/24 10:40:40;;;;;;;25.27;5.65;;;12.30;83.30;;;;;;10459147;28;20219;-68
2024/01/24 10:45:46;;;;;;;24.30;5.72;;;12.30;83.10;;;;;;10460624;28;20253;-67
2024/01/24 10:50:56;;;;;;;30.00;5.25;;;12.30;83.30;;;;;;10459487;28;20281;-67
2024/01/24 10:56:02;;;;;;;30.27;5.72;;;12.30;82.70;;;;;;10459313;28;20211;-68
2024/01/24 11:01:08;;;;;;;21.65;6.05;;;12.30;82.30;;;;;;10459245;28;20269;-66
2024/01/24 11:06:18;;;;;;;21.23;5.65;;;12.30;82.90;;;;;;10459372;28;20429;-65
2024/01/24 11:11:24;;;;;;;23.42;5.90;;;12.40;82.70;;;;;;10458908;28;20221;-65
2024/01/24 11:16:32;;;;;;;23.08;5.15;;;12.40;81.70;;;;;;10457029;28;20204;-64
2024/01/24 11:21:46;;;;;;;24.20;5.68;;;12.40;81.80;;;;;;10458115;28;20269;-64
2024/01/24 11:26:50;;;;;;;28.17;5.55;;;12.40;81.20;;;;;;10455542;28;20192;-64
2024/01/24 11:31:54;;;;;;;27.88;6.15;;;12.40;80.40;;;;;;10462724;28;20215;-65
2024/01/24 11:37:06;;;;;;;24.83;5.03;;;12.40;81.00;;;;;;10457686;28;20204;-64
2024/01/24 11:42:36;;;;;;;25.83;5.25;;;12.40;80.70;;;;;;10457068;28;20713;-66
2024/01/24 11:47:41;;;;;;;25.50;5.70;;;12.40;80.70;;;;;;10456677;28;20199;-64
2024/01/24 11:52:47;;;;;;;23.40;5.28;;;12.40;79.80;;;;;;10457223;28;20238;-65
2024/01/24 11:57:50;;;;;;;18.23;4.85;;;12.40;78.90;;;;;;10456689;28;20245;-65
2024/01/24 12:03:01;;;;;;;24.70;5.57;;;12.30;79.70;;;;;;10458662;28;20250;-65
2024/01/24 12:08:08;;;;;;;20.30;5.30;;;12.40;78.70;;;;;;10456937;28;20203;-66
2024/01/24 12:13:12;;;;;;;25.13;5.57;;;12.30;78.40;;;;;;10455376;28;20303;-66
2024/01/24 12:18:17;;;;;;;26.15;5.45;;;12.30;78.80;;;;;;10455929;28;20253;-63
2024/01/24 12:23:28;;;;;;;23.00;4.85;;;12.30;78.70;;;;;;10455727;28;20219;-63
2024/01/24 12:28:41;;;;;;;24.95;5.38;;;12.40;77.60;;;;;;10456136;28;20230;-63
2024/01/24 12:33:52;;;;;;;23.38;5.13;;;12.40;78.00;;;;;;10455663;28;20702;-63
2024/01/24 12:39:00;;;;;;;22.85;4.82;;;12.40;79.00;;;;;;10455832;28;20219;-63
2024/01/24 12:44:10;;;;;;;27.08;5.43;;;12.50;76.60;;;;;;10449928;28;20254;-62
2024/01/24 12:49:17;;;;;;;22.23;5.10;;;12.50;77.00;;;;;;10452591;28;20207;-62
2024/01/24 12:54:24;;;;;;;22.33;5.32;;;12.50;77.90;;;;;;10464907;28;20677;-63
2024/01/24 12:59:31;;;;;;;19.75;5.03;;;12.50;75.70;;;;;;10448390;28;20748;-64
2024/01/24 13:04:41;;;;;;;18.67;4.80;;;12.50;75.90;;;;;;10453495;28;20200;-63
2024/01/24 13:09:46;;;;;;;27.10;5.35;;;12.50;75.20;;;;;;10454363;28;20727;-63
2024/01/24 13:14:59;;;;;;;18.77;5.05;;;12.40;76.00;;;;;;10459577;28;20556;-62
2024/01/24 13:20:05;;;;;;;19.40;5.07;;;12.40;76.20;;;;;;10455062;28;20228;-63
2024/01/24 13:25:10;;;;;;;19.40;5.05;;;12.30;77.10;;;;;;10453323;28;20739;-63
2024/01/24 13:30:14;;;;;;;19.45;5.43;;;12.30;76.50;;;;;;10452714;28;20234;-60
2024/01/24 13:35:18;;;;;;;19.40;4.63;;;12.30;76.50;;;;;;10458604;28;20732;-64
2024/01/24 13:40:23;;;;;;;18.40;4.55;;;12.30;75.80;;;;;;10450340;28;20238;-67
2024/01/24 13:45:27;;;;;;;17.42;4.05;;;12.20;76.60;;;;;;10451452;28;20200;-66
2024/01/24 13:50:31;;;;;;;22.75;4.40;;;12.20;75.60;;;;;;10451370;28;20597;-67
2024/01/24 13:55:36;;;;;;;19.88;4.47;;;12.20;76.10;;;;;;10451260;28;20246;-68
2024/01/24 14:00:39;;;;;;;20.75;4.40;;;12.20;75.80;;;;;;10451014;28;20269;-66
2024/01/24 14:05:43;;;;;;;17.13;4.20;;;12.20;76.70;;;;;;10452697;28;20218;-67
2024/01/24 14:10:49;;;;;;;19.25;4.22;;;12.20;76.70;;;;;;10452161;28;20289;-67
2024/01/24 14:15:53;;;;;;;24.17;5.13;;;12.20;76.70;;;;;;10449149;28;20196;-63
2024/01/24 14:20:57;;;;;;;23.25;4.93;;;12.20;76.90;;;;;;10450456;28;20223;-64
2024/01/24 14:26:01;;;;;;;18.70;4.90;;;12.20;76.00;;;;;;10445430;28;20203;-65
2024/01/24 14:31:05;;;;;;;19.25;4.95;;;12.10;77.10;;;;;;10448871;28;20694;-65
2024/01/24 14:36:09;;;;;;;21.92;4.65;;;12.10;75.60;;;;;;10448866;28;20253;-64
2024/01/24 14:41:14;;;;;;;18.55;4.72;;;12.00;76.10;;;;;;10447701;28;20263;-63
2024/01/24 14:46:19;;;;;;;19.65;4.68;;;12.00;76.00;;;;;;10449545;28;20221;-67
2024/01/24 14:51:25;;;;;;;19.23;4.88;;;12.00;76.30;;;;;;10448192;28;20637;-68
2024/01/24 14:56:30;;;;;;;19.63;4.40;;;12.00;76.50;;;;;;10451094;28;20246;-69
2024/01/24 15:01:34;;;;;;;20.23;5.20;;;12.00;75.60;;;;;;10446426;28;20223;-66
2024/01/24 15:06:38;;;;;;;23.85;4.88;;;12.00;76.00;;;;;;10455148;28;20581;-68
2024/01/24 15:11:43;;;;;;;19.08;4.88;;;12.00;75.40;;;;;;10451079;28;20220;-68
2024/01/24 15:16:46;;;;;;;20.52;4.95;;;11.90;75.60;;;;;;10454622;28;20196;-67
2024/01/24 15:21:50;;;;;;;18.15;4.40;;;11.90;75.70;;;;;;10457104;28;20771;-66
2024/01/24 15:26:57;;;;;;;18.70;4.75;;;11.90;76.10;;;;;;10450594;28;20693;-68
2024/01/24 15:32:01;;;;;;;21.17;4.22;;;11.80;75.90;;;;;;10456196;28;20223;-67
2024/01/24 15:37:05;;;;;;;19.52;4.28;;;11.80;75.30;;;;;;10458735;28;20203;-65
2024/01/24 15:42:11;;;;;;;20.33;4.72;;;11.80;75.70;;;;;;10458765;28;20219;-67
2024/01/24 15:47:15;;;;;;;20.48;5.03;;;11.80;75.70;;;;;;10457753;28;20195;-68
2024/01/24 15:52:19;;;;;;;23.83;5.03;;;11.70;75.40;;;;;;10456645;28;20243;-66
2024/01/24 15:57:25;;;;;;;21.60;4.60;;;11.70;75.30;;;;;;10455208;28;20200;-66
2024/01/24 16:02:29;;;;;;;17.90;5.18;;;11.70;75.70;;;;;;10454898;28;20223;-67
2024/01/24 16:07:36;;;;;;;17.85;4.30;;;11.60;75.90;;;;;;10454330;28;20215;-68
2024/01/24 16:12:41;;;;;;;23.70;5.53;;;11.60;76.10;;;;;;10452692;28;20226;-68
2024/01/24 16:17:45;;;;;;;20.58;5.18;;;11.60;76.30;;;;;;10453794;28;20195;-62
2024/01/24 16:22:48;;;;;;;22.88;5.22;;;11.50;76.60;;;;;;10452477;28;20963;-64
2024/01/24 16:28:00;;;;;;;20.60;4.93;;;11.50;76.50;;;;;;10455959;28;20204;-61
2024/01/24 16:33:04;;;;;;;24.20;6.07;;;11.50;76.90;;;;;;10451373;28;20470;-62
2024/01/24 16:38:08;;;;;;;22.08;4.75;;;11.60;76.70;;;;;;10458684;28;20712;-61
2024/01/24 16:43:13;;;;;;;20.90;5.47;;;11.60;76.90;;;;;;10454894;28;20269;-59
2024/01/24 16:48:17;;;;;;;18.33;4.53;;;11.60;76.90;;;;;;10445090;28;20542;-62
2024/01/24 16:53:21;;;;;;;21.35;4.70;;;11.50;76.90;;;;;;10449160;28;20219;-61
2024/01/24 16:58:26;;;;;;;28.05;5.40;;;11.50;77.30;;;;;;10445640;28;20557;-62
2024/01/24 17:03:29;;;;;;;23.17;5.38;;;11.40;77.50;;;;;;10447951;28;20215;-61
2024/01/24 17:08:33;;;;;;;22.90;5.32;;;11.40;77.80;;;;;;10455233;28;20249;-62
2024/01/24 17:13:38;;;;;;;19.23;4.80;;;11.40;77.60;;;;;;10444572;28;20224;-61
2024/01/24 17:18:42;;;;;;;22.13;4.72;;;11.30;77.40;;;;;;10449455;28;20199;-61
2024/01/24 17:23:46;;;;;;;18.90;4.93;;;11.30;77.60;;;;;;10453550;28;20584;-60
2024/01/24 17:28:52;;;;;;;20.05;4.82;;;11.30;77.70;;;;;;10437518;28;20200;-59
2024/01/24 17:34:00;;;;;;;21.48;5.75;;;11.30;78.10;;;;;;10436631;28;20223;-60
2024/01/24 17:39:04;;;;;;;20.58;4.85;;;11.30;78.10;;;;;;10444931;28;20634;-60
2024/01/24 17:44:10;;;;;;;20.55;4.72;;;11.30;77.80;;;;;;10449086;28;20707;-61
2024/01/24 17:49:15;;;;;;;24.23;5.43;;;11.30;78.20;;;;;;10445819;28;20199;-59
2024/01/24 17:54:19;;;;;;;23.73;5.50;;;11.30;78.50;;;;;;10442733;28;20853;-60
2024/01/24 17:59:24;;;;;;;17.77;4.72;;;11.30;78.60;;;;;;10449523;28;20191;-59
2024/01/24 18:04:28;;;;;;;18.45;4.90;;;11.30;78.80;;;;;;10446144;28;20711;-60
2024/01/24 18:09:32;;;;;;;18.27;5.00;;;11.30;78.90;;;;;;10443476;28;20215;-60
2024/01/24 18:14:38;;;;;;;22.17;5.07;;;11.30;78.90;;;;;;10446872;28;20308;-60
2024/01/24 18:19:41;;;;;;;19.52;4.90;;;11.30;79.10;;;;;;10443022;28;20203;-61
2024/01/24 18:24:46;;;;;;;22.55;4.93;;;11.30;79.10;;;;;;10444819;28;20269;-59
2024/01/24 18:29:52;;;;;;;20.92;4.88;;;11.30;79.00;;;;;;10449875;28;20701;-60
2024/01/24 18:34:56;;;;;;;19.35;5.32;;;11.20;79.00;;;;;;10443109;28;20859;-59
2024/01/24 18:40:04;;;;;;;20.65;4.85;;;11.20;79.00;;;;;;10441521;28;20223;-61
2024/01/24 18:45:12;;;;;;;22.65;5.22;;;11.20;79.30;;;;;;10444392;28;20255;-61
2024/01/24 18:50:15;;;;;;;24.58;5.65;;;11.20;79.50;;;;;;10456492;28;20280;-61
2024/01/24 18:55:19;;;;;;;20.77;4.75;;;11.20;79.40;;;;;;10451834;28;20249;-61
2024/01/24 19:00:26;;;;;;;21.00;5.32;;;11.20;79.10;;;;;;10454821;28;20219;-60
2024/01/24 19:05:33;;;;;;;17.45;4.55;;;11.20;79.10;;;;;;10452931;28;20283;-61
2024/01/24 19:10:42;;;;;;;19.63;4.75;;;11.20;79.30;;;;;;10453402;28;20301;-62
2024/01/24 19:15:48;;;;;;;23.35;4.60;;;11.20;79.20;;;;;;10447326;28;20253;-60
2024/01/24 19:20:53;;;;;;;19.63;5.22;;;11.20;79.40;;;;;;10452642;28;20596;-60
2024/01/24 19:25:57;;;;;;;21.52;5.22;;;11.20;80.20;;;;;;10448618;28;20245;-65
2024/01/24 19:31:03;;;;;;;26.50;5.30;;;11.20;79.80;;;;;;10450800;28;20597;-64
2024/01/24 19:36:07;;;;;;;19.35;5.15;;;11.20;79.70;;;;;;10458034;28;20196;-61
2024/01/24 19:41:11;;;;;;;20.85;5.30;;;11.20;79.70;;;;;;10453326;28;20257;-62
2024/01/24 19:46:16;;;;;;;26.73;4.75;;;11.10;79.60;;;;;;10445903;28;20196;-61
2024/01/24 19:51:20;;;;;;;24.20;5.28;;;11.10;79.90;;;;;;10453300;28;20231;-63
2024/01/24 19:56:24;;;;;;;21.38;5.57;;;11.10;80.10;;;;;;10457057;28;20199;-62
2024/01/24 20:01:29;;;;;;;19.67;5.72;;;11.10;80.50;;;;;;10446512;28;20250;-63
2024/01/24 20:06:33;;;;;;;25.67;5.85;;;11.00;80.70;;;;;;10456734;28;20257;-62
2024/01/24 20:11:37;;;;;;;26.23;6.07;;;11.00;81.10;;;;;;10444681;28;20254;-60
2024/01/24 20:16:42;;;;;;;26.80;6.68;;;11.00;81.30;;;;;;10444360;28;20203;-60
2024/01/24 20:21:45;;;;;;;29.50;6.90;;;11.00;82.60;;;;;;10444562;28;20247;-61
2024/01/24 20:26:49;;;;;;;23.58;6.45;;;11.00;81.70;;;;;;10451329;28;20195;-62
2024/01/24 20:31:54;;;;;;;27.15;6.35;;;11.00;82.30;;;;;;10449733;28;20265;-61
2024/01/24 20:36:57;;;;;;;30.77;7.15;;;11.00;82.70;;;;;;10458015;28;20229;-61
2024/01/24 20:42:01;;;;;;;22.35;6.20;;;11.00;82.90;;;;;;10456754;28;20756;-61
2024/01/24 20:47:14;;;;;;;27.15;7.00;;;11.00;83.50;;;;;;10456741;28;20574;-61
2024/01/24 20:52:19;;;;;;;34.03;6.40;;;10.90;83.80;;;;;;10449973;28;20740;-60
2024/01/24 20:57:23;;;;;;;28.35;6.43;;;10.90;83.60;;;;;;10445454;28;20200;-63
2024/01/24 21:02:28;;;;;;;28.33;6.88;;;10.90;83.60;;;;;;10451215;28;20268;-60
2024/01/24 21:07:32;;;;;;;28.25;7.68;;;10.90;84.00;;;;;;10449873;28;20459;-61
2024/01/24 21:12:35;;;;;;;26.20;6.70;;;10.80;85.10;;;;;;10444147;28;20254;-61
2024/01/24 21:17:41;;;;;;;31.38;6.97;;;10.80;84.80;;;;;;10445494;28;20254;-60
2024/01/24 21:22:47;;;;;;;31.03;7.50;;;10.80;84.60;;;;;;10444469;28;20243;-61
2024/01/24 21:27:51;;;;;;;35.15;7.07;;;10.80;85.30;;;;;;10445190;28;20253;-61
2024/01/24 21:32:56;;;;;;;32.80;7.07;;;10.80;85.50;;;;;;10446068;28;20300;-60
2024/01/24 21:37:59;;;;;;;26.65;6.30;;;10.70;85.90;;;;;;10447310;28;20327;-60
2024/01/24 21:43:03;;;;;;;33.30;7.28;;;10.70;85.40;;;;;;10449997;28;20277;-62
2024/01/24 21:48:08;;;;;;;33.38;6.93;;;10.70;85.70;;;;;;10446970;28;20203;-62
2024/01/24 21:53:12;;;;;;;32.25;7.35;;;10.60;85.70;;;;;;10438165;28;20231;-62
2024/01/24 21:58:16;;;;;;;32.13;7.10;;;10.60;86.10;;;;;;10444164;28;20196;-62
2024/01/24 22:03:21;;;;;;;26.73;8.02;;;10.60;86.50;;;;;;10440491;28;20251;-64
2024/01/24 22:08:25;;;;;;;28.80;7.03;;;10.60;86.60;;;;;;10446895;28;20616;-64
2024/01/24 22:13:28;;;;;;;36.03;7.30;;;10.60;86.60;;;;;;10445148;28;20223;-63
